Time;durP1;ratioP1;P1;durP2;ratioP2;P2;SDS_P1;SDS_P2;PMS_P1;PMS_P2;Temp;Humidity;BMP_temperature;BMP_pressure;BME280_temperature;BME280_humidity;BME280_pressure;Samples;Min_cycle;Max_cycle;Signal;HPM_P1;HPM_P2
2023/07/22 00:01:50;;;;;;;31.63;21.02;;;;;;;23.94;44.71;101485.03;5012490;28;20517;-33
2023/07/22 00:04:17;;;;;;;34.25;22.30;;;;;;;23.93;44.46;101478.78;5016532;28;20136;-33
2023/07/22 00:06:43;;;;;;;32.95;20.88;;;;;;;23.91;44.50;101480.81;5017281;28;20061;-33
2023/07/22 00:09:10;;;;;;;32.67;21.25;;;;;;;23.89;44.93;101481.00;5014795;28;20050;-33
2023/07/22 00:11:36;;;;;;;31.88;21.08;;;;;;;23.88;44.66;101478.47;5018417;28;20108;-34
2023/07/22 00:14:06;;;;;;;32.80;21.48;;;;;;;23.87;44.39;101476.75;5016083;28;20065;-34
2023/07/22 00:16:33;;;;;;;32.22;20.80;;;;;;;23.86;44.88;101473.22;5016617;28;21499;-33
2023/07/22 00:19:00;;;;;;;32.00;20.60;;;;;;;23.84;45.16;101469.00;5013855;28;20112;-33
2023/07/22 00:21:27;;;;;;;32.42;20.88;;;;;;;23.82;45.22;101462.94;5011934;28;20342;-33
2023/07/22 00:23:54;;;;;;;29.83;19.95;;;;;;;23.80;44.56;101459.53;5015228;28;20116;-33
2023/07/22 00:26:20;;;;;;;30.88;21.02;;;;;;;23.80;44.84;101456.81;5014513;28;20109;-33
2023/07/22 00:28:47;;;;;;;32.65;21.05;;;;;;;23.79;45.26;101460.56;5017861;28;20046;-34
2023/07/22 00:31:13;;;;;;;27.35;18.60;;;;;;;23.77;44.63;101462.63;5019446;28;20048;-33
2023/07/22 00:33:40;;;;;;;27.83;18.92;;;;;;;23.75;44.72;101460.06;5019810;28;20052;-34
2023/07/22 00:36:07;;;;;;;30.58;18.98;;;;;;;23.75;44.47;101456.53;5010733;28;20096;-34
2023/07/22 00:38:33;;;;;;;26.52;18.00;;;;;;;23.73;44.89;101455.88;5013012;28;20057;-33
2023/07/22 00:41:00;;;;;;;29.63;18.70;;;;;;;23.74;44.78;101457.56;5015585;28;20053;-34
2023/07/22 00:43:26;;;;;;;27.75;18.08;;;;;;;23.71;45.22;101464.16;5020511;28;20055;-33
2023/07/22 00:45:53;;;;;;;29.70;17.95;;;;;;;23.71;44.52;101466.03;5017815;28;20052;-34
2023/07/22 00:48:20;;;;;;;27.48;17.27;;;;;;;23.69;45.03;101454.53;5017507;28;20111;-32
2023/07/22 00:50:47;;;;;;;26.67;18.38;;;;;;;23.69;45.31;101457.25;5015471;28;20201;-33
2023/07/22 00:53:14;;;;;;;25.63;17.25;;;;;;;23.67;44.71;101453.84;5014589;28;20050;-32
2023/07/22 00:55:41;;;;;;;27.52;17.65;;;;;;;23.64;45.21;101453.19;5012612;28;20126;-32
2023/07/22 00:58:08;;;;;;;25.80;17.20;;;;;;;23.65;44.87;101451.31;5019492;28;20049;-32
2023/07/22 01:00:34;;;;;;;23.45;15.73;;;;;;;23.63;45.08;101451.47;5017337;28;20047;-32
2023/07/22 01:03:01;;;;;;;23.17;16.13;;;;;;;23.62;44.98;101441.66;5016278;28;20149;-32
2023/07/22 01:05:28;;;;;;;24.13;16.25;;;;;;;23.60;45.07;101435.59;5018372;28;20046;-32
2023/07/22 01:07:55;;;;;;;22.98;14.88;;;;;;;23.59;45.11;101436.59;5016369;28;20133;-33
2023/07/22 01:10:22;;;;;;;23.25;15.25;;;;;;;23.59;44.96;101439.31;5016664;28;20050;-33
2023/07/22 01:12:48;;;;;;;24.38;15.10;;;;;;;23.59;44.87;101438.47;5017133;28;20053;-32
2023/07/22 01:15:15;;;;;;;21.80;15.05;;;;;;;23.56;45.10;101433.44;5014645;28;20138;-35
2023/07/22 01:17:42;;;;;;;21.75;14.15;;;;;;;23.56;45.35;101430.72;5019027;28;20438;-36
2023/07/22 01:20:09;;;;;;;21.23;14.60;;;;;;;23.55;44.86;101437.13;5016014;28;20046;-35
2023/07/22 01:22:37;;;;;;;20.65;14.30;;;;;;;23.52;45.48;101430.22;5015233;28;20050;-34
2023/07/22 01:25:04;;;;;;;20.88;13.50;;;;;;;23.52;45.00;101426.69;5013762;28;20046;-35
2023/07/22 01:27:31;;;;;;;19.85;13.98;;;;;;;23.51;45.35;101433.94;5023503;28;20441;-34
2023/07/22 01:29:58;;;;;;;18.98;12.35;;;;;;;23.50;45.00;101432.25;5024813;28;20054;-34
2023/07/22 01:32:24;;;;;;;20.13;14.13;;;;;;;23.49;45.11;101432.44;5012672;28;20050;-33
2023/07/22 01:34:51;;;;;;;18.85;13.38;;;;;;;23.48;44.78;101425.31;5014918;28;20364;-33
2023/07/22 01:37:17;;;;;;;20.42;13.82;;;;;;;23.46;45.10;101428.22;5013984;28;20103;-32
2023/07/22 01:39:44;;;;;;;18.80;13.02;;;;;;;23.45;45.21;101426.53;5013237;28;20501;-33
2023/07/22 01:42:11;;;;;;;17.15;12.60;;;;;;;23.44;45.41;101422.16;5012557;28;20132;-33
2023/07/22 01:44:40;;;;;;;17.77;12.57;;;;;;;23.44;45.37;101430.25;5014946;28;20073;-33
2023/07/22 01:47:06;;;;;;;20.30;12.88;;;;;;;23.42;45.61;101424.16;5015862;28;20081;-33
2023/07/22 01:49:34;;;;;;;18.33;12.95;;;;;;;23.42;45.67;101417.91;5011720;28;20049;-32
2023/07/22 01:52:01;;;;;;;17.70;12.73;;;;;;;23.41;45.16;101425.19;5012748;28;20120;-32
2023/07/22 01:54:28;;;;;;;17.38;11.98;;;;;;;23.40;45.27;101424.34;5015303;28;20413;-31
2023/07/22 01:56:55;;;;;;;16.58;11.80;;;;;;;23.39;45.11;101417.22;5014068;28;20054;-34
2023/07/22 01:59:21;;;;;;;16.42;11.48;;;;;;;23.39;45.11;101414.53;5013892;28;20385;-33
2023/07/22 02:01:48;;;;;;;16.05;11.38;;;;;;;23.38;45.12;101415.56;5016498;28;20535;-33
2023/07/22 02:04:15;;;;;;;16.88;11.35;;;;;;;23.37;45.16;101415.75;5014750;28;20430;-34
2023/07/22 02:06:41;;;;;;;16.00;11.88;;;;;;;23.37;45.31;101418.44;5014107;28;20086;-34
2023/07/22 02:09:08;;;;;;;17.02;11.68;;;;;;;23.35;45.34;101413.19;5008551;28;20109;-33
2023/07/22 02:11:36;;;;;;;16.75;11.30;;;;;;;23.35;45.32;101417.75;5009889;28;20046;-33
2023/07/22 02:14:06;;;;;;;15.07;10.73;;;;;;;23.34;45.59;101414.22;5010490;28;20060;-34
2023/07/22 02:16:35;;;;;;;15.38;10.68;;;;;;;23.34;45.67;101413.38;5012509;28;20392;-33
2023/07/22 02:19:02;;;;;;;18.33;11.70;;;;;;;23.34;45.74;101416.09;5011802;28;20053;-33
2023/07/22 02:21:29;;;;;;;15.63;11.05;;;;;;;23.32;45.68;101404.63;5010883;28;20050;-33
2023/07/22 02:23:56;;;;;;;14.77;9.98;;;;;;;23.31;45.47;101406.44;5010178;28;20050;-34
2023/07/22 02:26:23;;;;;;;15.07;10.80;;;;;;;23.30;45.20;101402.06;5012860;28;20045;-33
2023/07/22 02:28:49;;;;;;;15.90;10.63;;;;;;;23.30;45.37;101401.22;5011805;28;20146;-33
2023/07/22 02:31:16;;;;;;;15.60;10.48;;;;;;;23.29;45.65;101391.44;5008109;28;20128;-33
2023/07/22 02:33:42;;;;;;;16.23;10.50;;;;;;;23.28;45.54;101387.88;5011227;28;20353;-33
2023/07/22 02:36:09;;;;;;;15.90;10.48;;;;;;;23.28;45.44;101392.47;5014728;28;20116;-33
2023/07/22 02:38:35;;;;;;;15.55;10.32;;;;;;;23.28;45.69;101387.03;5014353;28;20124;-34
2023/07/22 02:41:06;;;;;;;14.55;10.38;;;;;;;23.26;45.78;101380.94;5009268;28;20050;-34
2023/07/22 02:43:33;;;;;;;13.52;9.95;;;;;;;23.25;45.37;101384.69;5007452;28;20084;-33
2023/07/22 02:46:05;;;;;;;13.68;9.73;;;;;;;23.24;45.70;101378.44;5009493;28;20136;-34
2023/07/22 02:48:32;;;;;;;13.20;9.25;;;;;;;23.25;45.80;101388.22;5009299;28;20050;-33
2023/07/22 02:51:06;;;;;;;14.05;9.73;;;;;;;23.23;45.48;101386.69;5005746;28;20317;-34
2023/07/22 02:53:36;;;;;;;13.70;9.60;;;;;;;23.22;45.38;101391.28;5010417;28;20053;-35
2023/07/22 02:56:04;;;;;;;14.05;8.68;;;;;;;23.22;45.54;101391.28;5009527;28;20046;-34
2023/07/22 02:58:31;;;;;;;13.57;9.70;;;;;;;23.22;45.53;101390.44;5009316;28;20060;-33
2023/07/22 03:00:57;;;;;;;12.43;8.70;;;;;;;23.22;45.90;101391.28;5011054;28;20089;-33
2023/07/22 03:03:24;;;;;;;12.05;8.77;;;;;;;23.20;45.79;101390.63;5010020;28;20421;-34
2023/07/22 03:05:52;;;;;;;11.65;8.65;;;;;;;23.20;45.42;101385.22;5010294;28;20050;-33
2023/07/22 03:08:18;;;;;;;11.70;8.75;;;;;;;23.20;46.07;101384.38;5006571;28;20073;-33
2023/07/22 03:10:51;;;;;;;13.43;9.00;;;;;;;23.19;45.29;101383.50;5009552;28;20085;-33
2023/07/22 03:13:17;;;;;;;13.23;9.18;;;;;;;23.19;45.70;101390.78;5009896;28;20138;-33
2023/07/22 03:15:44;;;;;;;13.27;9.35;;;;;;;23.17;45.53;101385.56;5010651;28;20535;-33
2023/07/22 03:18:11;;;;;;;14.77;9.00;;;;;;;23.15;45.95;101388.41;5009848;28;20453;-33
2023/07/22 03:20:38;;;;;;;13.13;8.52;;;;;;;23.16;45.99;101392.00;5009475;28;20062;-33
2023/07/22 03:23:06;;;;;;;10.98;7.85;;;;;;;23.15;45.60;101388.41;5010707;28;20509;-33
2023/07/22 03:25:34;;;;;;;11.77;8.60;;;;;;;23.14;45.50;101397.56;5007310;28;20125;-33
2023/07/22 03:28:04;;;;;;;11.10;8.18;;;;;;;23.15;45.83;101392.97;5008968;28;20096;-33
2023/07/22 03:30:31;;;;;;;10.85;7.70;;;;;;;23.14;45.57;101399.41;5008622;28;20129;-33
2023/07/22 03:32:58;;;;;;;12.05;7.88;;;;;;;23.13;45.62;101389.63;5019640;28;20468;-33
2023/07/22 03:35:25;;;;;;;10.93;7.50;;;;;;;23.12;45.88;101386.09;5005820;28;20072;-33
2023/07/22 03:37:52;;;;;;;11.25;7.97;;;;;;;23.12;45.96;101394.19;5007636;28;20056;-33
2023/07/22 03:40:26;;;;;;;11.10;7.38;;;;;;;23.11;45.74;101397.06;5008754;28;20042;-33
2023/07/22 03:42:54;;;;;;;10.30;7.40;;;;;;;23.10;46.01;101401.63;5005920;28;20057;-33
2023/07/22 03:45:21;;;;;;;9.52;6.78;;;;;;;23.10;45.85;101398.91;5009301;28;20046;-33
2023/07/22 03:47:59;;;;;;;11.55;7.82;;;;;;;23.09;46.22;101412.63;5007456;28;20073;-33
2023/07/22 03:50:26;;;;;;;11.40;7.60;;;;;;;23.09;46.12;101408.06;5008479;28;20354;-34
2023/07/22 03:52:53;;;;;;;10.02;7.15;;;;;;;23.08;45.66;101400.13;5008063;28;20108;-33
2023/07/22 03:55:20;;;;;;;10.85;7.35;;;;;;;23.07;46.24;101399.25;5006079;28;20046;-34
2023/07/22 03:57:46;;;;;;;10.23;6.80;;;;;;;23.08;45.71;101409.06;5007142;28;20059;-33
2023/07/22 04:00:13;;;;;;;9.63;6.90;;;;;;;23.06;45.73;101400.28;5004139;28;20077;-34
2023/07/22 04:02:40;;;;;;;10.27;6.90;;;;;;;23.08;46.03;101397.44;5007438;28;20049;-33
2023/07/22 04:05:08;;;;;;;9.98;7.20;;;;;;;23.06;45.97;101413.81;5002772;28;20108;-33
2023/07/22 04:07:34;;;;;;;12.82;7.10;;;;;;;23.06;46.17;101407.56;5005834;28;20042;-33
2023/07/22 04:10:02;;;;;;;9.73;7.45;;;;;;;23.05;46.15;101411.28;5010099;28;20119;-33
2023/07/22 04:12:29;;;;;;;11.00;6.78;;;;;;;23.06;45.96;101418.38;5007821;28;20826;-33
2023/07/22 04:14:55;;;;;;;8.43;6.35;;;;;;;23.04;45.95;101413.16;5008340;28;20045;-34
2023/07/22 04:17:22;;;;;;;8.30;5.85;;;;;;;23.04;45.86;101417.72;5006597;28;20406;-33
2023/07/22 04:19:51;;;;;;;8.75;6.25;;;;;;;23.03;46.02;101403.31;5020292;28;20143;-33
2023/07/22 04:22:20;;;;;;;8.38;6.22;;;;;;;23.04;45.80;101404.19;5014227;28;20045;-33
2023/07/22 04:24:50;;;;;;;9.48;6.40;;;;;;;23.01;45.57;101402.66;5015971;28;20410;-34
2023/07/22 04:27:17;;;;;;;10.30;6.30;;;;;;;23.02;45.96;101400.81;5014748;28;20370;-34
2023/07/22 04:29:43;;;;;;;8.68;5.88;;;;;;;23.02;46.26;101407.06;5016346;28;20053;-33
2023/07/22 04:32:10;;;;;;;8.98;6.22;;;;;;;23.01;46.48;101399.97;5013347;28;20442;-34
2023/07/22 04:34:37;;;;;;;8.57;6.10;;;;;;;23.01;46.18;101402.66;5014896;28;20050;-33
2023/07/22 04:37:03;;;;;;;9.23;6.78;;;;;;;23.01;46.21;101405.38;5017418;28;20053;-34
2023/07/22 04:39:30;;;;;;;8.77;5.63;;;;;;;23.02;46.15;101406.22;5018046;28;20046;-33
2023/07/22 04:41:56;;;;;;;8.45;5.75;;;;;;;23.01;46.08;101407.25;5016248;28;20112;-34
2023/07/22 04:44:24;;;;;;;9.90;6.47;;;;;;;23.01;46.18;101405.38;5010312;28;20127;-33
2023/07/22 04:46:51;;;;;;;8.15;5.68;;;;;;;23.02;46.33;101400.81;5013304;28;20060;-33
2023/07/22 04:49:17;;;;;;;7.22;5.28;;;;;;;23.02;46.01;101404.34;5015495;28;20100;-33
2023/07/22 04:51:46;;;;;;;8.13;5.30;;;;;;;23.01;45.79;101397.25;5016632;28;20062;-33
2023/07/22 04:54:12;;;;;;;8.27;5.60;;;;;;;23.01;46.04;101396.44;5017531;28;20049;-33
2023/07/22 04:56:39;;;;;;;8.10;5.68;;;;;;;23.01;46.21;101401.84;5015764;28;20395;-34
2023/07/22 04:59:05;;;;;;;7.38;5.05;;;;;;;23.01;45.88;101399.13;5013223;28;20096;-34
2023/07/22 05:01:32;;;;;;;7.03;5.40;;;;;;;23.00;45.91;101398.28;5011450;28;20172;-33
2023/07/22 05:03:59;;;;;;;7.25;5.32;;;;;;;23.00;46.28;101401.00;5012163;28;20046;-34
2023/07/22 05:06:27;;;;;;;7.85;5.93;;;;;;;23.00;45.94;101390.19;5007033;28;20128;-33
2023/07/22 05:08:55;;;;;;;6.65;5.25;;;;;;;23.01;46.07;101396.44;5017063;28;20042;-34
2023/07/22 05:11:23;;;;;;;7.38;5.45;;;;;;;23.00;46.12;101390.19;5014194;28;20393;-33
2023/07/22 05:13:50;;;;;;;11.02;5.35;;;;;;;23.01;45.98;101391.84;5015025;28;20428;-33
2023/07/22 05:16:17;;;;;;;6.18;4.65;;;;;;;23.01;46.29;101397.25;5017028;28;20045;-33
2023/07/22 05:18:44;;;;;;;7.68;5.28;;;;;;;23.01;46.03;101393.72;5018278;28;20085;-33
2023/07/22 05:21:10;;;;;;;9.00;5.05;;;;;;;23.00;45.92;101398.28;5030379;28;20335;-33
2023/07/22 05:23:37;;;;;;;6.45;4.47;;;;;;;23.01;46.22;101399.13;5016580;28;20409;-33
2023/07/22 05:26:03;;;;;;;7.35;4.47;;;;;;;23.00;46.29;101402.84;5016394;28;20081;-33
2023/07/22 05:28:30;;;;;;;7.70;4.78;;;;;;;23.01;46.23;101404.53;5017963;28;20060;-33
2023/07/22 05:30:57;;;;;;;6.80;4.85;;;;;;;23.00;46.40;101397.44;5002356;28;20058;-34
2023/07/22 05:33:24;;;;;;;6.65;4.80;;;;;;;23.01;46.58;101399.13;5005362;28;20060;-33
2023/07/22 05:35:50;;;;;;;7.63;5.18;;;;;;;23.01;46.50;101399.13;5000555;28;20050;-33
2023/07/22 05:38:17;;;;;;;7.10;5.13;;;;;;;23.01;46.39;101401.84;5002017;28;20430;-33
2023/07/22 05:40:43;;;;;;;8.20;5.35;;;;;;;23.00;46.46;101395.59;5008697;28;20054;-33
2023/07/22 05:43:10;;;;;;;8.57;5.40;;;;;;;23.01;46.54;101402.66;5008678;28;20119;-33
2023/07/22 05:45:37;;;;;;;11.45;6.22;;;;;;;23.00;46.85;101401.00;5011297;28;20042;-33
2023/07/22 05:48:04;;;;;;;12.40;6.63;;;;;;;23.00;46.37;101392.88;5013821;28;20101;-32
2023/07/22 05:50:31;;;;;;;11.60;6.05;;;;;;;23.02;46.95;101395.41;5012581;28;20350;-34
2023/07/22 05:52:58;;;;;;;10.05;6.40;;;;;;;23.01;46.96;101391.00;5017603;28;20064;-33
2023/07/22 05:55:24;;;;;;;10.40;6.38;;;;;;;23.01;47.32;101391.00;5016106;28;20045;-33
2023/07/22 05:57:51;;;;;;;9.25;6.45;;;;;;;23.02;46.99;101392.69;5014897;28;20579;-33
2023/07/22 06:00:18;;;;;;;11.65;6.80;;;;;;;23.01;47.29;101389.16;5011451;28;20053;-33
2023/07/22 06:02:45;;;;;;;11.77;6.70;;;;;;;23.01;47.50;101397.25;5016653;28;20050;-33
2023/07/22 06:05:12;;;;;;;9.65;6.40;;;;;;;23.03;47.41;101388.97;5016940;28;20208;-33
2023/07/22 06:07:38;;;;;;;13.32;7.07;;;;;;;23.02;47.70;101390.84;5014524;28;20100;-33
2023/07/22 06:10:06;;;;;;;11.02;7.20;;;;;;;23.02;47.51;101393.53;5012853;28;20109;-33
2023/07/22 06:12:32;;;;;;;11.50;6.95;;;;;;;23.04;47.86;101387.97;5002455;28;20061;-35
2023/07/22 06:14:59;;;;;;;13.25;8.18;;;;;;;23.03;47.82;101392.50;5009885;28;20069;-33
2023/07/22 06:17:26;;;;;;;11.15;7.15;;;;;;;23.03;47.86;101395.22;5008927;28;20667;-33
2023/07/22 06:19:52;;;;;;;13.90;6.85;;;;;;;23.04;48.02;101386.09;5007867;28;20466;-33
2023/07/22 06:22:19;;;;;;;10.68;6.63;;;;;;;23.05;47.96;101386.94;5005140;28;20061;-33
2023/07/22 06:24:46;;;;;;;14.95;7.60;;;;;;;23.07;48.29;101387.59;5009777;28;20104;-32
2023/07/22 06:27:12;;;;;;;15.68;8.00;;;;;;;23.07;48.48;101391.16;5012320;28;20049;-32
2023/07/22 06:29:39;;;;;;;16.50;8.57;;;;;;;23.07;48.62;101396.56;5014926;28;20136;-34
2023/07/22 06:32:06;;;;;;;14.18;9.10;;;;;;;23.08;48.69;101376.63;5012059;28;20132;-32
2023/07/22 06:34:33;;;;;;;16.08;8.93;;;;;;;23.09;48.22;101377.47;5006953;28;20050;-33
2023/07/22 06:36:59;;;;;;;16.50;9.55;;;;;;;23.09;49.04;101372.91;5009235;28;20053;-33
2023/07/22 06:39:26;;;;;;;15.38;9.20;;;;;;;23.10;48.74;101376.44;5014833;28;20073;-33
2023/07/22 06:41:52;;;;;;;15.88;9.40;;;;;;;23.10;48.93;101380.00;5015980;28;20095;-33
2023/07/22 06:44:19;;;;;;;19.38;10.20;;;;;;;23.11;48.87;101376.25;5015796;28;20596;-33
2023/07/22 06:46:46;;;;;;;17.73;9.80;;;;;;;23.12;49.23;101372.56;5007974;28;20139;-33
2023/07/22 06:49:12;;;;;;;17.60;9.05;;;;;;;23.12;48.95;101375.25;5024377;28;20068;-32
2023/07/22 06:51:39;;;;;;;16.40;9.35;;;;;;;23.13;48.88;101373.41;5008762;28;20096;-32
2023/07/22 06:54:06;;;;;;;19.52;10.00;;;;;;;23.13;49.33;101376.94;5011421;28;20086;-32
2023/07/22 06:56:32;;;;;;;14.25;8.63;;;;;;;23.14;49.32;101361.56;5014044;28;20080;-33
2023/07/22 06:58:59;;;;;;;17.50;9.25;;;;;;;23.15;49.38;101365.94;5011017;28;20045;-33
2023/07/22 07:01:25;;;;;;;19.48;9.38;;;;;;;23.16;49.28;101373.06;5011431;28;20105;-32
2023/07/22 07:03:52;;;;;;;18.95;9.90;;;;;;;23.17;49.60;101368.50;5009055;28;20050;-33
2023/07/22 07:06:19;;;;;;;20.02;10.48;;;;;;;23.18;49.67;101370.16;5010305;28;20045;-33
2023/07/22 07:08:45;;;;;;;17.25;10.23;;;;;;;23.19;49.32;101371.84;5005609;28;20053;-33
2023/07/22 07:11:14;;;;;;;25.40;11.50;;;;;;;23.19;50.08;101371.84;5012036;28;20662;-33
2023/07/22 07:13:41;;;;;;;37.60;16.48;;;;;;;23.21;49.95;101377.94;5015628;28;20503;-33
2023/07/22 07:16:29;;;;;;;28.60;14.35;;;;;;;23.17;50.59;101374.75;5008665;28;20123;-33
2023/07/22 07:18:56;;;;;;;25.70;14.45;;;;;;;23.20;50.61;101381.66;5006361;28;20062;-33
2023/07/22 07:21:23;;;;;;;24.38;14.05;;;;;;;23.18;50.62;101379.13;5010958;28;20421;-32
2023/07/22 07:23:52;;;;;;;42.72;16.52;;;;;;;23.17;51.04;101377.44;5010840;28;20743;-33
2023/07/22 07:26:19;;;;;;;27.75;14.00;;;;;;;23.14;51.12;101375.91;5012737;28;20042;-32
2023/07/22 07:28:50;;;;;;;27.98;13.75;;;;;;;23.12;50.87;101375.25;5009771;28;20046;-33
2023/07/22 07:31:17;;;;;;;26.83;13.57;;;;;;;23.12;51.08;101377.97;5008245;28;20046;-33
2023/07/22 07:33:44;;;;;;;22.20;12.93;;;;;;;23.11;51.64;101370.84;5007948;28;20054;-32
2023/07/22 07:36:11;;;;;;;27.17;13.30;;;;;;;23.10;51.44;101371.88;5011996;28;20074;-33
2023/07/22 07:38:37;;;;;;;26.27;13.40;;;;;;;23.11;51.15;101367.31;5010681;28;20050;-33
2023/07/22 07:41:11;;;;;;;22.85;13.18;;;;;;;23.11;51.79;101375.41;5013099;28;20065;-33
2023/07/22 07:43:39;;;;;;;25.63;13.57;;;;;;;23.09;51.73;101382.88;5008510;28;20045;-32
2023/07/22 07:46:13;;;;;;;24.92;12.45;;;;;;;23.06;51.79;101375.09;5006694;28;20057;-33
2023/07/22 07:48:40;;;;;;;27.08;12.27;;;;;;;23.04;52.26;101378.00;5007273;28;20107;-37
2023/07/22 07:51:07;;;;;;;25.35;11.95;;;;;;;23.04;52.16;101375.28;5006478;28;20057;-32
2023/07/22 07:53:33;;;;;;;26.10;11.40;;;;;;;23.04;52.04;101367.19;5008972;28;20053;-32
2023/07/22 07:56:00;;;;;;;22.85;11.38;;;;;;;23.04;51.87;101371.75;5010674;28;20088;-33
2023/07/22 07:58:27;;;;;;;22.02;11.73;;;;;;;23.04;52.02;101369.88;5023694;28;20122;-33
2023/07/22 08:00:53;;;;;;;22.40;11.38;;;;;;;23.04;52.46;101366.34;5012951;28;20046;-33
2023/07/22 08:03:20;;;;;;;17.35;9.73;;;;;;;23.04;52.14;101369.03;5008750;28;20045;-32
2023/07/22 08:05:47;;;;;;;18.30;11.10;;;;;;;23.06;51.93;101367.00;5008759;28;20053;-33
2023/07/22 08:08:14;;;;;;;24.50;11.43;;;;;;;23.03;52.29;101362.78;5006286;28;20140;-32
2023/07/22 08:10:42;;;;;;;17.73;10.02;;;;;;;23.02;52.37;101376.47;5008145;28;20450;-33
2023/07/22 08:13:08;;;;;;;24.33;10.75;;;;;;;23.01;52.42;101370.22;5002227;28;20205;-32
2023/07/22 08:15:36;;;;;;;20.25;9.85;;;;;;;23.00;52.49;101365.84;5007952;28;20050;-32
2023/07/22 08:18:03;;;;;;;20.33;9.70;;;;;;;22.99;52.44;101361.44;5009034;28;20499;-33
2023/07/22 08:20:30;;;;;;;21.48;10.70;;;;;;;22.99;52.29;101369.53;5010534;28;20496;-34
2023/07/22 08:22:57;;;;;;;19.25;10.38;;;;;;;22.98;52.32;101367.03;5010297;28;20054;-32
2023/07/22 08:25:23;;;;;;;25.75;11.48;;;;;;;22.96;52.38;101369.91;5007192;28;20046;-32
2023/07/22 08:27:50;;;;;;;23.63;10.80;;;;;;;22.95;52.31;101370.91;5005294;28;20046;-32
2023/07/22 08:30:16;;;;;;;17.52;9.88;;;;;;;22.95;52.32;101365.50;5005473;28;20108;-32
2023/07/22 08:32:43;;;;;;;17.70;9.60;;;;;;;22.94;52.47;101368.38;5007164;28;20104;-32
2023/07/22 08:35:10;;;;;;;17.13;9.45;;;;;;;22.93;52.07;101370.25;5009363;28;20050;-33
2023/07/22 08:37:36;;;;;;;17.15;9.30;;;;;;;22.95;52.55;101364.66;5014414;28;20045;-33
2023/07/22 08:40:05;;;;;;;20.48;10.07;;;;;;;22.96;52.39;101367.22;5016127;28;20461;-33
2023/07/22 08:42:33;;;;;;;14.95;9.02;;;;;;;22.96;52.62;101359.09;5021317;28;20400;-34
2023/07/22 08:45:02;;;;;;;16.75;8.35;;;;;;;22.98;52.26;101357.06;5021404;28;20421;-32
2023/07/22 08:47:29;;;;;;;16.52;8.50;;;;;;;22.99;52.03;101358.72;5018529;28;20041;-33
2023/07/22 08:50:00;;;;;;;16.20;9.23;;;;;;;22.99;51.87;101360.59;5016344;28;20045;-32
2023/07/22 08:52:27;;;;;;;17.05;8.05;;;;;;;22.99;51.70;101361.44;5018810;28;20058;-33
2023/07/22 08:54:54;;;;;;;16.58;8.00;;;;;;;23.00;51.51;101355.03;5017524;28;20077;-32
2023/07/22 08:57:22;;;;;;;14.30;7.60;;;;;;;22.99;51.61;101358.72;5020656;28;20049;-33
2023/07/22 08:59:49;;;;;;;14.07;7.57;;;;;;;22.98;51.24;101365.16;5019917;28;20045;-32
2023/07/22 09:02:16;;;;;;;20.08;8.32;;;;;;;22.98;51.45;101353.50;5017799;28;20061;-33
2023/07/22 09:04:44;;;;;;;13.05;7.55;;;;;;;22.97;51.71;101358.06;5019479;28;20131;-34
2023/07/22 09:07:12;;;;;;;15.80;7.05;;;;;;;22.98;51.84;101364.31;5024459;28;20041;-32
2023/07/22 09:09:39;;;;;;;13.70;7.70;;;;;;;22.96;51.25;101361.81;5017377;28;20046;-33
2023/07/22 09:12:06;;;;;;;14.25;7.07;;;;;;;22.97;51.73;101357.22;5018983;28;20533;-33
2023/07/22 09:14:34;;;;;;;12.60;6.35;;;;;;;22.97;51.43;101360.78;5013599;28;20054;-32
2023/07/22 09:17:03;;;;;;;11.90;6.32;;;;;;;22.98;51.21;101354.34;5015984;28;20077;-33
2023/07/22 09:19:30;;;;;;;13.10;6.45;;;;;;;22.99;50.85;101364.13;5019046;28;20050;-33
2023/07/22 09:21:58;;;;;;;8.77;5.45;;;;;;;22.99;50.67;101360.59;5012737;28;20053;-34
2023/07/22 09:24:27;;;;;;;11.10;6.60;;;;;;;22.97;50.49;101354.53;5018260;28;20049;-32
2023/07/22 09:26:55;;;;;;;13.77;5.95;;;;;;;22.97;50.50;101355.38;5018846;28;20046;-32
2023/07/22 09:29:36;;;;;;;14.57;5.57;;;;;;;22.96;50.07;101361.81;5011065;28;20046;-32
2023/07/22 09:32:03;;;;;;;12.98;5.38;;;;;;;22.96;50.21;101361.81;5011722;28;20137;-32
2023/07/22 09:34:30;;;;;;;9.32;4.95;;;;;;;22.95;50.05;101361.97;5012946;28;20100;-32
2023/07/22 09:37:03;;;;;;;10.00;4.30;;;;;;;22.94;50.23;101352.16;5011234;28;20442;-32
2023/07/22 09:39:30;;;;;;;10.63;4.57;;;;;;;22.95;50.16;101353.84;5010881;28;20543;-33
2023/07/22 09:41:58;;;;;;;9.32;4.60;;;;;;;22.94;49.91;101344.91;5009984;28;20054;-33
2023/07/22 09:44:32;;;;;;;10.75;4.90;;;;;;;22.93;49.93;101359.44;5004328;28;20046;-33
2023/07/22 09:47:07;;;;;;;14.90;4.80;;;;;;;22.92;49.51;101348.81;5006433;28;20057;-32
2023/07/22 09:49:33;;;;;;;10.63;4.68;;;;;;;22.91;50.04;101350.66;5008571;28;20076;-33
2023/07/22 09:52:00;;;;;;;11.82;4.32;;;;;;;22.91;49.66;101342.53;5009147;28;20399;-32
2023/07/22 09:54:30;;;;;;;12.63;4.38;;;;;;;22.92;49.75;101346.09;5011243;28;20054;-33
2023/07/22 09:56:57;;;;;;;10.07;4.35;;;;;;;22.92;49.60;101341.53;5009698;28;20157;-33
2023/07/22 09:59:25;;;;;;;13.75;4.57;;;;;;;22.93;49.20;101345.91;5002503;28;20046;-32
2023/07/22 10:01:52;;;;;;;12.30;4.28;;;;;;;22.93;49.34;101335.09;5009814;28;20068;-33
2023/07/22 10:04:25;;;;;;;9.00;3.53;;;;;;;22.93;49.12;101335.09;5012672;28;20057;-33
2023/07/22 10:06:52;;;;;;;8.80;3.43;;;;;;;22.95;49.33;101343.88;5015431;28;20053;-33
2023/07/22 10:09:22;;;;;;;8.55;3.80;;;;;;;22.95;48.56;101346.56;5018155;28;20054;-34
2023/07/22 10:11:48;;;;;;;9.32;3.80;;;;;;;22.95;48.40;101343.03;5016015;28;20385;-33
2023/07/22 10:14:18;;;;;;;7.07;3.63;;;;;;;22.92;48.84;101341.53;5020439;28;20054;-32
2023/07/22 10:16:45;;;;;;;7.35;3.13;;;;;;;22.95;48.93;101343.03;5015414;28;20089;-33
2023/07/22 10:19:12;;;;;;;7.65;3.22;;;;;;;22.95;48.42;101340.34;5008273;28;20049;-32
2023/07/22 10:21:39;;;;;;;6.47;2.97;;;;;;;22.96;48.21;101347.44;5011874;28;20053;-32
2023/07/22 10:24:07;;;;;;;9.50;3.33;;;;;;;22.95;48.49;101354.69;5014210;28;20099;-33
2023/07/22 10:26:34;;;;;;;7.15;3.17;;;;;;;22.94;48.31;101355.72;5009252;28;20053;-32
2023/07/22 10:29:14;;;;;;;8.07;2.90;;;;;;;22.94;48.19;101369.22;5003824;28;20346;-33
2023/07/22 10:31:41;;;;;;;8.57;3.47;;;;;;;22.92;48.19;101360.47;5010417;28;20105;-33
2023/07/22 10:34:08;;;;;;;9.23;3.47;;;;;;;22.92;48.32;101365.88;5010763;28;20054;-32
2023/07/22 10:36:36;;;;;;;8.00;3.28;;;;;;;22.93;47.95;101375.66;5011408;28;20086;-33
2023/07/22 10:39:03;;;;;;;8.88;3.42;;;;;;;22.93;48.23;101394.59;5008590;28;20804;-33
2023/07/22 10:41:33;;;;;;;8.27;3.20;;;;;;;22.95;48.37;101397.94;5008297;28;20084;-33
2023/07/22 10:44:00;;;;;;;7.05;2.70;;;;;;;22.96;48.15;101394.25;5011340;28;20136;-32
2023/07/22 10:46:57;;;;;;;6.85;2.70;;;;;;;22.97;49.18;101393.22;5013738;28;20053;-34
2023/07/22 10:49:24;;;;;;;3.75;2.72;;;;;;;22.99;48.82;101395.75;5027519;28;20115;-34
2023/07/22 10:51:51;;;;;;;8.63;2.45;;;;;;;23.00;48.88;101390.19;5011278;28;20119;-32
2023/07/22 10:54:36;;;;;;;7.70;2.22;;;;;;;23.00;49.04;101389.34;5014690;28;20049;-33
2023/07/22 10:57:15;;;;;;;4.88;2.22;;;;;;;23.01;49.25;101386.44;5012550;28;20077;-35
2023/07/22 10:59:49;;;;;;;7.80;2.30;;;;;;;23.02;49.57;101381.88;5011110;28;20077;-31
2023/07/22 11:02:27;;;;;;;4.85;2.00;;;;;;;23.02;49.61;101379.19;5010195;28;20477;-35
2023/07/22 11:04:59;;;;;;;6.57;2.30;;;;;;;23.02;49.48;101382.72;5007251;28;20051;-35
2023/07/22 11:07:34;;;;;;;3.47;1.95;;;;;;;23.02;50.02;101390.00;5014926;28;20045;-35
2023/07/22 11:10:16;;;;;;;4.45;2.40;;;;;;;23.02;50.25;101377.31;5011286;28;20054;-34
2023/07/22 11:12:46;;;;;;;5.75;2.33;;;;;;;23.01;49.62;101374.78;5008981;28;20133;-33
2023/07/22 11:15:17;;;;;;;4.38;1.88;;;;;;;23.01;49.92;101369.38;5012814;28;20045;-34
2023/07/22 11:17:44;;;;;;;4.50;2.40;;;;;;;23.02;50.19;101382.72;5011099;28;20057;-33
2023/07/22 11:20:11;;;;;;;3.85;1.90;;;;;;;23.02;50.41;101374.59;5011528;28;20050;-33